createdAt,value
2019-03-27T00:01:15.793Z,12.73
2019-03-27T00:03:46.732Z,10.78
2019-03-27T00:06:17.705Z,10.53
2019-03-27T00:08:48.649Z,9.95
2019-03-27T00:11:19.622Z,10.45
2019-03-27T00:13:50.584Z,10.30
2019-03-27T00:16:21.555Z,10.55
2019-03-27T00:18:52.490Z,11.80
2019-03-27T00:21:23.498Z,11.70
2019-03-27T00:23:54.488Z,11.63
2019-03-27T00:26:25.454Z,11.95
2019-03-27T00:28:57.624Z,13.28
2019-03-27T00:31:28.594Z,13.43
2019-03-27T00:33:59.637Z,14.75
2019-03-27T00:36:30.664Z,13.22
2019-03-27T00:39:01.599Z,13.75
2019-03-27T00:41:33.873Z,14.68
2019-03-27T00:44:04.819Z,14.38
2019-03-27T00:46:35.839Z,17.02
2019-03-27T00:49:08.377Z,16.37
2019-03-27T00:51:39.361Z,18.20
2019-03-27T00:54:10.268Z,15.10
2019-03-27T00:56:41.618Z,14.30
2019-03-27T00:59:12.898Z,14.95
2019-03-27T01:01:43.861Z,16.17
2019-03-27T01:04:14.797Z,15.03
2019-03-27T01:06:45.767Z,14.30
2019-03-27T01:09:16.740Z,15.75
2019-03-27T01:11:47.706Z,16.27
2019-03-27T01:14:18.649Z,15.75
2019-03-27T01:16:49.657Z,17.65
2019-03-27T01:19:20.604Z,17.07
2019-03-27T01:21:51.635Z,17.70
2019-03-27T01:24:22.594Z,17.60
2019-03-27T01:26:53.554Z,16.00
2019-03-27T01:29:24.550Z,17.62
2019-03-27T01:31:55.522Z,18.57
2019-03-27T01:34:26.497Z,17.85
2019-03-27T01:36:57.466Z,18.20
2019-03-27T01:39:28.404Z,17.80
2019-03-27T01:41:59.371Z,18.12
2019-03-27T01:44:30.313Z,18.45
2019-03-27T01:47:02.284Z,17.27
2019-03-27T01:49:33.227Z,15.88
2019-03-27T01:52:04.193Z,17.87
2019-03-27T01:54:36.163Z,16.00
2019-03-27T01:57:07.132Z,16.05
2019-03-27T01:59:38.124Z,16.20
2019-03-27T02:02:09.069Z,15.05
2019-03-27T02:04:40.035Z,15.53
2019-03-27T02:07:10.970Z,16.12
2019-03-27T02:09:41.937Z,15.65
2019-03-27T02:12:12.872Z,15.20
2019-03-27T02:14:43.845Z,16.20
2019-03-27T02:17:15.881Z,15.00
2019-03-27T02:19:46.861Z,15.03
2019-03-27T02:22:18.797Z,15.35
2019-03-27T02:24:49.767Z,16.12
2019-03-27T02:27:20.707Z,15.40
2019-03-27T02:29:51.676Z,17.20
2019-03-27T02:32:22.824Z,14.78
2019-03-27T02:34:53.789Z,16.37
2019-03-27T02:37:24.733Z,16.82
2019-03-27T02:39:55.708Z,16.77
2019-03-27T02:42:26.639Z,19.15
2019-03-27T02:44:57.808Z,18.35
2019-03-27T02:47:28.842Z,16.67
2019-03-27T02:49:59.777Z,19.60
2019-03-27T02:52:30.751Z,18.73
2019-03-27T02:55:01.691Z,21.55
2019-03-27T02:57:32.730Z,21.50
2019-03-27T03:00:05.134Z,21.77
2019-03-27T03:02:36.274Z,22.73
2019-03-27T03:05:09.886Z,23.98
2019-03-27T03:07:40.940Z,21.50
2019-03-27T03:10:13.837Z,20.32
2019-03-27T03:12:44.819Z,21.60
2019-03-27T03:15:20.267Z,24.47
2019-03-27T03:17:51.441Z,20.23
2019-03-27T03:20:22.393Z,22.22
2019-03-27T03:22:53.359Z,21.93
2019-03-27T03:25:24.470Z,19.75
2019-03-27T03:27:56.455Z,22.35
2019-03-27T03:30:27.399Z,23.18
2019-03-27T03:32:58.438Z,22.30
2019-03-27T03:35:29.370Z,23.12
2019-03-27T03:38:00.340Z,24.32
2019-03-27T03:40:32.380Z,22.30
2019-03-27T03:43:03.350Z,25.32
2019-03-27T03:45:34.335Z,25.60
2019-03-27T03:48:05.305Z,22.37
2019-03-27T03:50:44.166Z,25.17
2019-03-27T03:53:15.943Z,24.02
2019-03-27T03:55:46.905Z,21.50
2019-03-27T03:58:18.632Z,22.75
2019-03-27T04:00:49.782Z,25.45
2019-03-27T04:03:22.879Z,24.87
2019-03-27T04:05:53.832Z,23.70
2019-03-27T04:08:24.864Z,22.15
2019-03-27T04:10:55.809Z,24.40
2019-03-27T04:13:26.785Z,25.80
2019-03-27T04:15:57.738Z,24.30
2019-03-27T04:18:28.785Z,24.30
2019-03-27T04:20:59.736Z,26.17
2019-03-27T04:23:30.699Z,24.07
2019-03-27T04:26:09.471Z,23.62
2019-03-27T04:28:34.306Z,25.55
2019-03-27T04:31:05.247Z,24.02
2019-03-27T04:33:36.226Z,26.73
2019-03-27T04:36:07.188Z,24.27
2019-03-27T04:38:38.256Z,25.10
2019-03-27T04:41:09.170Z,25.20
2019-03-27T04:43:40.137Z,23.80
2019-03-27T04:46:11.072Z,22.98
2019-03-27T04:48:43.043Z,25.43
2019-03-27T04:51:13.973Z,25.05
2019-03-27T04:53:44.989Z,26.65
2019-03-27T04:56:15.931Z,26.40
2019-03-27T04:58:46.896Z,25.10
2019-03-27T05:01:17.847Z,28.75
2019-03-27T05:03:49.020Z,27.45
2019-03-27T05:06:19.960Z,26.50
2019-03-27T05:08:50.942Z,27.42
2019-03-27T05:11:21.890Z,29.15
2019-03-27T05:13:52.882Z,31.40
2019-03-27T05:16:23.862Z,29.32
2019-03-27T05:18:54.837Z,30.68
2019-03-27T05:21:25.782Z,32.05
2019-03-27T05:23:56.760Z,43.15
2019-03-27T05:26:27.708Z,30.45
2019-03-27T05:28:59.821Z,47.05
2019-03-27T05:31:30.773Z,27.05
2019-03-27T05:34:01.828Z,27.50
2019-03-27T05:36:32.773Z,29.70
2019-03-27T05:39:04.666Z,30.30
2019-03-27T05:41:37.156Z,32.42
2019-03-27T05:44:08.131Z,32.08
2019-03-27T05:46:39.083Z,28.12
2019-03-27T05:49:10.053Z,30.85
2019-03-27T05:51:41.025Z,28.45
2019-03-27T05:54:12.007Z,28.62
2019-03-27T05:56:42.973Z,27.75
2019-03-27T05:59:13.997Z,30.17
2019-03-27T06:01:44.951Z,31.62
2019-03-27T06:04:15.923Z,31.12
2019-03-27T06:06:46.871Z,31.27
2019-03-27T06:09:17.850Z,29.30
2019-03-27T06:11:48.794Z,32.00
2019-03-27T06:14:19.767Z,29.72
2019-03-27T06:16:51.724Z,28.45
2019-03-27T06:19:22.697Z,29.35
2019-03-27T06:21:53.697Z,31.93
2019-03-27T06:24:24.701Z,31.90
2019-03-27T06:26:55.746Z,32.63
2019-03-27T06:29:26.684Z,33.95
2019-03-27T06:31:57.629Z,29.67
2019-03-27T06:34:28.675Z,29.70
2019-03-27T06:36:59.622Z,28.52
2019-03-27T06:39:30.597Z,30.80
2019-03-27T06:42:01.539Z,31.00
2019-03-27T06:44:32.523Z,32.00
2019-03-27T06:47:03.674Z,34.20
2019-03-27T06:49:34.695Z,32.28
2019-03-27T06:52:05.662Z,31.77
2019-03-27T06:54:36.641Z,30.37
2019-03-27T06:57:07.588Z,30.52
2019-03-27T06:59:38.558Z,28.40
2019-03-27T07:02:09.582Z,29.55
2019-03-27T07:04:40.864Z,29.63
2019-03-27T07:07:11.979Z,30.32
2019-03-27T07:09:42.933Z,30.60
2019-03-27T07:12:21.159Z,30.23
2019-03-27T07:14:46.613Z,34.65
2019-03-27T07:17:17.650Z,30.72
2019-03-27T07:19:48.719Z,33.25
2019-03-27T07:22:19.680Z,35.52
2019-03-27T07:24:50.623Z,32.95
2019-03-27T07:27:22.603Z,35.60
2019-03-27T07:29:53.556Z,30.05
2019-03-27T07:32:24.608Z,30.35
2019-03-27T07:34:55.567Z,33.95
2019-03-27T07:37:26.536Z,31.12
2019-03-27T07:39:57.482Z,30.00
2019-03-27T07:42:29.006Z,29.60
2019-03-27T07:45:00.148Z,28.73
2019-03-27T07:47:31.443Z,28.85
2019-03-27T07:50:02.387Z,28.27
2019-03-27T07:52:33.470Z,28.47
2019-03-27T07:55:18.455Z,26.80
2019-03-27T07:57:37.880Z,29.18
2019-03-27T08:00:19.856Z,31.02
2019-03-27T08:02:50.949Z,30.08
2019-03-27T08:05:21.889Z,26.82
2019-03-27T08:07:52.909Z,27.73
2019-03-27T08:10:23.855Z,25.43
2019-03-27T08:12:54.829Z,26.40
2019-03-27T08:15:25.768Z,26.17
2019-03-27T08:17:56.742Z,25.32
2019-03-27T08:20:28.682Z,23.77
2019-03-27T08:22:59.762Z,24.05
2019-03-27T08:25:30.698Z,23.18
2019-03-27T08:28:01.667Z,26.45
2019-03-27T08:30:33.605Z,22.45
2019-03-27T08:33:04.574Z,25.23
2019-03-27T08:35:35.517Z,23.45
2019-03-27T08:38:06.478Z,23.50
2019-03-27T08:40:37.418Z,23.55
2019-03-27T08:43:20.542Z,24.05
2019-03-27T08:45:42.196Z,26.35
2019-03-27T08:48:13.237Z,25.70
2019-03-27T08:50:44.174Z,26.07
2019-03-27T08:53:15.145Z,24.10
2019-03-27T08:55:46.156Z,24.55
2019-03-27T08:58:17.127Z,22.65
2019-03-27T09:00:50.971Z,24.07
2019-03-27T09:03:22.034Z,24.47
2019-03-27T09:05:53.979Z,23.60
2019-03-27T09:08:24.953Z,23.20
2019-03-27T09:10:55.891Z,22.67
2019-03-27T09:13:26.869Z,20.12
2019-03-27T09:15:57.799Z,22.75
2019-03-27T09:18:28.796Z,22.15
2019-03-27T09:20:59.731Z,20.68
2019-03-27T09:23:30.703Z,33.53
2019-03-27T09:26:01.643Z,21.30
2019-03-27T09:28:32.609Z,23.05
2019-03-27T09:31:03.552Z,21.62
2019-03-27T09:33:34.721Z,20.97
2019-03-27T09:36:05.881Z,21.62
2019-03-27T09:38:37.016Z,20.85
2019-03-27T09:41:07.945Z,18.23
2019-03-27T09:43:38.920Z,21.10
2019-03-27T09:46:09.876Z,22.70
2019-03-27T09:48:40.853Z,17.98
2019-03-27T09:51:11.812Z,16.80
2019-03-27T09:53:42.781Z,19.10
2019-03-27T09:56:19.374Z,17.67
2019-03-27T09:58:46.394Z,16.50
2019-03-27T10:01:17.337Z,17.85
2019-03-27T10:03:48.300Z,18.77
2019-03-27T10:06:19.269Z,16.90
2019-03-27T10:08:50.239Z,16.30
2019-03-27T10:11:23.866Z,17.65
2019-03-27T10:13:54.004Z,16.25
2019-03-27T10:16:24.951Z,15.50
2019-03-27T10:18:55.922Z,17.70
2019-03-27T10:21:26.884Z,15.58
2019-03-27T10:23:57.878Z,66.55
2019-03-27T10:26:29.829Z,17.80
2019-03-27T10:29:00.876Z,18.52
2019-03-27T10:31:31.822Z,17.50
2019-03-27T10:34:02.793Z,16.17
2019-03-27T10:36:33.736Z,15.50
2019-03-27T10:39:07.910Z,16.77
2019-03-27T10:41:38.842Z,16.82
2019-03-27T10:44:09.821Z,15.60
2019-03-27T10:46:40.851Z,15.18
2019-03-27T10:49:11.834Z,15.65
2019-03-27T10:51:42.782Z,14.45
2019-03-27T10:54:14.864Z,14.85
2019-03-27T10:56:45.813Z,13.08
2019-03-27T10:59:16.788Z,13.20
2019-03-27T11:01:47.745Z,12.28
2019-03-27T11:04:18.722Z,12.07
2019-03-27T11:06:49.679Z,13.30
2019-03-27T11:09:20.647Z,11.80
2019-03-27T11:11:51.598Z,11.95
2019-03-27T11:14:22.569Z,11.80
2019-03-27T11:16:53.511Z,14.23
2019-03-27T11:19:24.486Z,13.78
2019-03-27T11:21:55.422Z,12.40
2019-03-27T11:24:26.421Z,12.58
2019-03-27T11:26:57.388Z,14.63
2019-03-27T11:29:28.331Z,13.13
2019-03-27T11:31:59.299Z,13.53
2019-03-27T11:34:30.253Z,14.35
2019-03-27T11:37:01.234Z,15.13
2019-03-27T11:39:32.169Z,14.05
2019-03-27T11:42:03.267Z,14.05
2019-03-27T11:44:34.218Z,14.50
2019-03-27T11:47:05.173Z,15.72
2019-03-27T11:49:36.113Z,16.55
2019-03-27T11:52:07.125Z,14.63
2019-03-27T11:54:39.063Z,13.58
2019-03-27T11:57:10.939Z,13.90
2019-03-27T11:59:53.302Z,14.43
2019-03-27T12:02:14.537Z,14.28
2019-03-27T12:04:45.491Z,14.40
2019-03-27T12:07:16.471Z,15.68
2019-03-27T12:09:47.415Z,15.75
2019-03-27T12:12:18.398Z,16.17
2019-03-27T12:14:49.351Z,13.85
2019-03-27T12:17:20.331Z,14.63
2019-03-27T12:19:51.276Z,14.60
2019-03-27T12:22:22.265Z,13.18
2019-03-27T12:24:53.214Z,14.20
2019-03-27T12:27:24.193Z,14.33
2019-03-27T12:29:55.141Z,14.50
2019-03-27T12:32:26.124Z,13.20
2019-03-27T12:34:57.069Z,13.65
2019-03-27T12:37:28.061Z,13.18
2019-03-27T12:39:59.013Z,13.65
2019-03-27T12:42:29.991Z,16.32
2019-03-27T12:45:01.998Z,13.18
2019-03-27T12:47:33.401Z,15.32
2019-03-27T12:50:10.030Z,16.25
2019-03-27T12:52:41.020Z,15.50
2019-03-27T12:55:12.114Z,15.88
2019-03-27T12:57:43.120Z,14.78
2019-03-27T13:00:14.260Z,12.95
2019-03-27T13:02:45.208Z,13.20
2019-03-27T13:05:16.183Z,13.72
2019-03-27T13:07:50.237Z,13.53
2019-03-27T13:10:19.817Z,13.68
2019-03-27T13:12:50.769Z,12.70
2019-03-27T13:15:21.750Z,10.90
2019-03-27T13:17:52.636Z,12.13
2019-03-27T13:20:24.134Z,12.65
2019-03-27T13:22:55.344Z,10.40
2019-03-27T13:25:26.330Z,10.77
2019-03-27T13:27:57.292Z,11.00
2019-03-27T13:30:28.269Z,11.00
2019-03-27T13:32:59.217Z,10.20
2019-03-27T13:35:30.202Z,11.20
2019-03-27T13:38:01.144Z,9.37
2019-03-27T13:40:32.119Z,9.33
2019-03-27T13:43:03.081Z,8.57
2019-03-27T13:45:35.050Z,9.13
2019-03-27T13:48:06.691Z,7.80
2019-03-27T13:50:37.666Z,8.90
2019-03-27T13:53:08.610Z,8.67
2019-03-27T13:55:39.592Z,8.33
2019-03-27T13:58:10.527Z,8.20
2019-03-27T14:00:41.508Z,9.30
2019-03-27T14:03:12.462Z,10.07
2019-03-27T14:05:43.459Z,10.03
2019-03-27T14:08:14.411Z,9.70
2019-03-27T14:10:45.403Z,11.30
2019-03-27T14:13:17.373Z,8.88
2019-03-27T14:15:48.352Z,11.05
2019-03-27T14:18:19.321Z,8.83
2019-03-27T14:20:50.300Z,11.48
2019-03-27T14:23:21.257Z,11.03
2019-03-27T14:25:52.265Z,10.15
2019-03-27T14:28:23.219Z,10.05
2019-03-27T14:30:56.494Z,9.30
2019-03-27T14:33:27.475Z,9.98
2019-03-27T14:35:58.418Z,8.83
2019-03-27T14:38:29.405Z,10.32
2019-03-27T14:41:00.453Z,41.65
2019-03-27T14:43:31.438Z,31.12
2019-03-27T14:46:02.440Z,15.58
2019-03-27T14:48:33.536Z,9.33
2019-03-27T14:51:04.609Z,9.15
2019-03-27T14:53:35.590Z,9.70
2019-03-27T14:56:06.621Z,10.38
2019-03-27T14:58:37.599Z,10.05
2019-03-27T15:01:08.538Z,9.50
2019-03-27T15:03:39.508Z,10.45
2019-03-27T15:06:10.458Z,8.80
2019-03-27T15:08:41.425Z,8.93
2019-03-27T15:11:12.367Z,9.20
2019-03-27T15:13:43.338Z,8.70
2019-03-27T15:16:14.277Z,8.90
2019-03-27T15:18:45.282Z,10.35
2019-03-27T15:21:16.222Z,9.70
2019-03-27T15:23:47.198Z,8.60
2019-03-27T15:26:18.136Z,8.78
2019-03-27T15:28:50.789Z,8.95
2019-03-27T15:31:21.741Z,8.70
2019-03-27T15:33:52.709Z,26.62
2019-03-27T15:36:23.653Z,41.18
2019-03-27T15:38:54.624Z,9.90
2019-03-27T15:41:25.589Z,11.10
2019-03-27T15:43:56.656Z,9.83
2019-03-27T15:46:27.591Z,9.85
2019-03-27T15:48:58.578Z,9.00
2019-03-27T15:51:29.577Z,11.10
2019-03-27T15:54:00.543Z,9.23
2019-03-27T15:56:31.534Z,9.78
2019-03-27T15:59:02.505Z,9.68
2019-03-27T16:01:34.545Z,9.20
2019-03-27T16:04:05.514Z,8.48
2019-03-27T16:06:36.532Z,20.12
2019-03-27T16:09:10.774Z,11.88
2019-03-27T16:11:41.780Z,14.98
2019-03-27T16:14:12.749Z,11.10
2019-03-27T16:17:01.280Z,9.00
2019-03-27T16:19:16.374Z,10.55
2019-03-27T16:21:47.381Z,9.25
2019-03-27T16:24:19.462Z,10.08
2019-03-27T16:27:03.781Z,10.15
2019-03-27T16:29:23.136Z,9.53
2019-03-27T16:31:54.077Z,10.18
2019-03-27T16:34:25.299Z,11.03
2019-03-27T16:36:56.463Z,11.15
2019-03-27T16:39:27.537Z,10.40
2019-03-27T16:41:58.482Z,11.03
2019-03-27T16:44:29.463Z,12.30
2019-03-27T16:47:00.402Z,10.85
2019-03-27T16:49:31.376Z,9.33
2019-03-27T16:52:02.314Z,10.08
2019-03-27T16:54:33.288Z,10.13
2019-03-27T16:57:04.239Z,10.03
2019-03-27T16:59:35.210Z,9.05
2019-03-27T17:02:06.343Z,9.90
2019-03-27T17:04:37.321Z,10.32
2019-03-27T17:07:08.265Z,11.15
2019-03-27T17:09:39.259Z,11.83
2019-03-27T17:12:10.271Z,12.60
2019-03-27T17:14:41.752Z,12.37
2019-03-27T17:17:12.847Z,21.37
2019-03-27T17:19:47.019Z,11.85
2019-03-27T17:22:19.677Z,10.72
2019-03-27T17:24:50.621Z,11.08
2019-03-27T17:27:22.983Z,12.93
2019-03-27T17:29:53.955Z,11.48
2019-03-27T17:32:24.997Z,11.12
2019-03-27T17:34:56.043Z,11.85
2019-03-27T17:37:27.087Z,13.20
2019-03-27T17:39:58.241Z,13.13
2019-03-27T17:42:29.252Z,12.60
2019-03-27T17:45:00.379Z,13.32
2019-03-27T17:47:31.345Z,12.85
2019-03-27T17:50:02.317Z,13.03
2019-03-27T17:52:37.998Z,12.65
2019-03-27T17:55:08.638Z,13.48
2019-03-27T17:57:39.641Z,13.15
2019-03-27T18:00:15.253Z,13.15
2019-03-27T18:02:46.294Z,13.62
2019-03-27T18:05:17.346Z,14.70
2019-03-27T18:07:48.359Z,15.30
2019-03-27T18:10:19.333Z,15.53
2019-03-27T18:12:50.476Z,13.00
2019-03-27T18:15:21.602Z,14.50
2019-03-27T18:17:52.539Z,14.80
2019-03-27T18:20:23.520Z,15.50
2019-03-27T18:22:54.500Z,15.43
2019-03-27T18:25:25.503Z,15.55
2019-03-27T18:27:58.428Z,15.30
2019-03-27T18:30:29.154Z,16.17
2019-03-27T18:33:00.095Z,17.75
2019-03-27T18:35:31.083Z,14.90
2019-03-27T18:38:02.019Z,16.40
2019-03-27T18:40:33.188Z,15.38
2019-03-27T18:43:04.270Z,15.60
2019-03-27T18:45:35.342Z,107.63
2019-03-27T18:48:06.491Z,18.25
2019-03-27T18:50:37.472Z,17.73
2019-03-27T18:53:08.407Z,17.32
2019-03-27T18:55:39.377Z,19.60
2019-03-27T18:58:10.402Z,20.05
2019-03-27T19:00:41.414Z,20.82
2019-03-27T19:03:12.357Z,18.55
2019-03-27T19:05:43.323Z,20.00
2019-03-27T19:08:14.265Z,19.77
2019-03-27T19:10:45.438Z,19.60
2019-03-27T19:13:16.447Z,19.00
2019-03-27T19:15:47.479Z,19.17
2019-03-27T19:18:18.424Z,20.35
2019-03-27T19:20:49.392Z,19.92
2019-03-27T19:23:20.396Z,19.95
2019-03-27T19:25:51.431Z,17.52
2019-03-27T19:28:22.476Z,17.85
2019-03-27T19:30:53.545Z,17.57
2019-03-27T19:33:24.484Z,19.75
2019-03-27T19:35:55.461Z,17.27
2019-03-27T19:38:26.441Z,19.15
2019-03-27T19:40:57.577Z,16.40
2019-03-27T19:43:29.054Z,19.10
2019-03-27T19:46:00.051Z,16.77
2019-03-27T19:48:31.000Z,15.23
2019-03-27T19:51:01.967Z,17.48
2019-03-27T19:53:32.909Z,15.15
2019-03-27T19:56:03.896Z,15.53
2019-03-27T19:58:35.053Z,16.23
2019-03-27T20:01:07.072Z,16.15
2019-03-27T20:03:38.045Z,15.58
2019-03-27T20:06:09.061Z,14.98
2019-03-27T20:08:40.066Z,16.30
2019-03-27T20:11:11.278Z,15.03
2019-03-27T20:13:42.263Z,13.70
2019-03-27T20:16:13.365Z,15.48
2019-03-27T20:18:44.317Z,15.25
2019-03-27T20:21:15.286Z,14.10
2019-03-27T20:23:46.288Z,13.55
2019-03-27T20:26:17.412Z,12.40
2019-03-27T20:28:48.347Z,14.18
2019-03-27T20:31:20.318Z,15.60
2019-03-27T20:33:51.255Z,15.05
2019-03-27T20:36:22.407Z,16.30
2019-03-27T20:38:53.431Z,14.68
2019-03-27T20:41:24.409Z,14.55
2019-03-27T20:43:55.356Z,14.20
2019-03-27T20:46:29.148Z,14.73
2019-03-27T20:48:59.059Z,14.55
2019-03-27T20:51:30.038Z,14.93
2019-03-27T20:54:01.595Z,15.60
2019-03-27T20:56:32.731Z,14.20
2019-03-27T20:59:03.713Z,13.75
2019-03-27T21:01:34.751Z,14.80
2019-03-27T21:04:06.432Z,14.80
2019-03-27T21:06:37.552Z,15.32
2019-03-27T21:09:11.460Z,14.87
2019-03-27T21:11:42.832Z,15.80
2019-03-27T21:14:14.882Z,16.85
2019-03-27T21:16:45.886Z,14.83
2019-03-27T21:19:17.155Z,14.63
2019-03-27T21:21:48.092Z,15.90
2019-03-27T21:24:19.073Z,14.43
2019-03-27T21:26:50.015Z,15.72
2019-03-27T21:29:20.990Z,15.53
2019-03-27T21:31:51.933Z,17.90
2019-03-27T21:34:22.899Z,17.48
2019-03-27T21:36:53.895Z,16.82
2019-03-27T21:39:26.003Z,18.42
2019-03-27T21:41:57.183Z,18.30
2019-03-27T21:44:28.147Z,16.35
2019-03-27T21:47:00.089Z,16.57
2019-03-27T21:49:31.059Z,16.82
2019-03-27T21:52:02.046Z,15.20
2019-03-27T21:54:33.186Z,14.98
2019-03-27T21:57:04.265Z,15.72
2019-03-27T21:59:35.232Z,15.25
2019-03-27T22:02:06.871Z,15.65
2019-03-27T22:04:37.852Z,14.73
2019-03-27T22:07:08.803Z,15.50
2019-03-27T22:09:39.798Z,15.98
2019-03-27T22:12:12.295Z,15.23
2019-03-27T22:14:43.269Z,15.10
2019-03-27T22:17:14.328Z,15.08
2019-03-27T22:19:46.495Z,15.80
2019-03-27T22:22:17.430Z,16.60
2019-03-27T22:24:49.395Z,15.75
2019-03-27T22:27:20.341Z,16.67
2019-03-27T22:29:51.305Z,17.55
2019-03-27T22:32:22.279Z,17.30
2019-03-27T22:34:53.266Z,16.82
2019-03-27T22:37:24.241Z,17.12
2019-03-27T22:39:55.199Z,16.67
2019-03-27T22:42:26.156Z,14.83
2019-03-27T22:44:57.117Z,15.98
2019-03-27T22:47:28.126Z,14.90
2019-03-27T22:49:59.124Z,14.93
2019-03-27T22:52:30.095Z,13.90
2019-03-27T22:55:01.056Z,14.20
2019-03-27T22:57:32.608Z,12.65
2019-03-27T23:00:06.720Z,12.45
2019-03-27T23:02:39.242Z,12.45
2019-03-27T23:05:11.409Z,13.50
2019-03-27T23:07:42.440Z,13.03
2019-03-27T23:10:13.678Z,13.13
2019-03-27T23:12:46.354Z,15.08
2019-03-27T23:15:17.351Z,13.30
2019-03-27T23:17:51.555Z,13.13
2019-03-27T23:20:22.627Z,12.70
2019-03-27T23:22:53.772Z,13.10
2019-03-27T23:25:24.708Z,12.10
2019-03-27T23:27:55.620Z,12.20
2019-03-27T23:30:26.776Z,12.58
2019-03-27T23:32:57.751Z,11.20
2019-03-27T23:35:28.685Z,13.13
2019-03-27T23:37:59.656Z,13.68
2019-03-27T23:40:30.662Z,12.23
2019-03-27T23:43:01.696Z,13.20
2019-03-27T23:45:32.711Z,14.05
2019-03-27T23:48:03.742Z,14.10
2019-03-27T23:50:34.709Z,14.60
2019-03-27T23:53:05.671Z,14.25
2019-03-27T23:55:36.869Z,13.55
2019-03-27T23:58:07.834Z,14.28
